METAR Data
IDs: Format: Raw Decoded Include TAF

Data at: 1626 UTC 03 Dec 2021

KVCT 031551Z 19007KT 3SM BR OVC002 21/21 A3010 RMK AO2 SLP190 T02110206